sensor_id;sensor_type;location;lat;lon;timestamp;pressure;altitude;pressure_sealevel;temperature;humidity
71970;BME280;59838;52.152;5.436;2023-02-25T00:01:33;100919.69;;;3.47;93.71
71970;BME280;59838;52.152;5.436;2023-02-25T00:04:00;100921.03;;;3.52;93.80
71970;BME280;59838;52.152;5.436;2023-02-25T00:06:26;100920.34;;;3.59;93.52
71970;BME280;59838;52.152;5.436;2023-02-25T00:08:54;100909.81;;;3.62;93.28
71970;BME280;59838;52.152;5.436;2023-02-25T00:11:22;100923.19;;;3.66;92.84
71970;BME280;59838;52.152;5.436;2023-02-25T00:13:49;100921.19;;;3.70;92.77
71970;BME280;59838;52.152;5.436;2023-02-25T00:16:17;100922.53;;;3.74;92.39
71970;BME280;59838;52.152;5.436;2023-02-25T00:18:45;100912.09;;;3.75;91.88
71970;BME280;59838;52.152;5.436;2023-02-25T00:21:14;100918.88;;;3.76;92.06
71970;BME280;59838;52.152;5.436;2023-02-25T00:23:42;100920.50;;;3.77;91.35
71970;BME280;59838;52.152;5.436;2023-02-25T00:26:09;100919.81;;;3.75;91.03
71970;BME280;59838;52.152;5.436;2023-02-25T00:28:37;100931.59;;;3.78;90.74
71970;BME280;59838;52.152;5.436;2023-02-25T00:31:10;100925.63;;;3.77;90.37
71970;BME280;59838;52.152;5.436;2023-02-25T00:33:37;100932.53;;;3.77;90.32
71970;BME280;59838;52.152;5.436;2023-02-25T00:36:19;100931.72;;;3.76;90.41
71970;BME280;59838;52.152;5.436;2023-02-25T00:38:47;100930.75;;;3.77;90.23
71970;BME280;59838;52.152;5.436;2023-02-25T00:41:16;100931.72;;;3.76;90.17
71970;BME280;59838;52.152;5.436;2023-02-25T00:43:47;100929.81;;;3.78;90.33
71970;BME280;59838;52.152;5.436;2023-02-25T00:46:14;100934.84;;;3.80;90.40
71970;BME280;59838;52.152;5.436;2023-02-25T00:48:41;100936.34;;;3.82;90.40
71970;BME280;59838;52.152;5.436;2023-02-25T00:51:30;100947.16;;;3.86;89.86
71970;BME280;59838;52.152;5.436;2023-02-25T00:53:56;100956.63;;;3.86;90.34
71970;BME280;59838;52.152;5.436;2023-02-25T00:56:23;100953.22;;;3.85;89.93
71970;BME280;59838;52.152;5.436;2023-02-25T00:58:51;100955.66;;;3.87;89.88
71970;BME280;59838;52.152;5.436;2023-02-25T01:01:26;100948.09;;;3.85;90.39
71970;BME280;59838;52.152;5.436;2023-02-25T01:03:54;100949.84;;;3.84;90.27
71970;BME280;59838;52.152;5.436;2023-02-25T01:06:26;100960.00;;;3.86;90.40
71970;BME280;59838;52.152;5.436;2023-02-25T01:08:53;100956.63;;;3.86;90.40
71970;BME280;59838;52.152;5.436;2023-02-25T01:11:29;100956.75;;;3.84;90.74
71970;BME280;59838;52.152;5.436;2023-02-25T01:13:58;100957.69;;;3.83;90.65
71970;BME280;59838;52.152;5.436;2023-02-25T01:16:26;100954.31;;;3.82;90.94
71970;BME280;59838;52.152;5.436;2023-02-25T01:18:55;100955.25;;;3.81;91.19
71970;BME280;59838;52.152;5.436;2023-02-25T01:21:25;100959.59;;;3.81;91.03
71970;BME280;59838;52.152;5.436;2023-02-25T01:23:58;100956.19;;;3.80;91.54
71970;BME280;59838;52.152;5.436;2023-02-25T01:26:27;100959.19;;;3.76;92.16
71970;BME280;59838;52.152;5.436;2023-02-25T01:28:54;100958.50;;;3.74;92.17
71970;BME280;59838;52.152;5.436;2023-02-25T01:31:24;100952.28;;;3.76;92.60
71970;BME280;59838;52.152;5.436;2023-02-25T01:33:58;100955.94;;;3.74;92.78
71970;BME280;59838;52.152;5.436;2023-02-25T01:36:26;100953.50;;;3.72;93.25
71970;BME280;59838;52.152;5.436;2023-02-25T01:38:53;100948.88;;;3.66;93.34
71970;BME280;59838;52.152;5.436;2023-02-25T01:41:23;100962.69;;;3.65;93.62
71970;BME280;59838;52.152;5.436;2023-02-25T01:44:14;100952.94;;;3.69;93.23
71970;BME280;59838;52.152;5.436;2023-02-25T01:46:43;100953.88;;;3.67;93.46
71970;BME280;59838;52.152;5.436;2023-02-25T01:49:15;100952.16;;;3.68;93.19
71970;BME280;59838;52.152;5.436;2023-02-25T01:51:45;100953.09;;;3.67;93.49
71970;BME280;59838;52.152;5.436;2023-02-25T01:54:20;100953.22;;;3.65;93.04
71970;BME280;59838;52.152;5.436;2023-02-25T01:56:53;100945.78;;;3.62;92.84
71970;BME280;59838;52.152;5.436;2023-02-25T01:59:23;100942.53;;;3.60;92.40
71970;BME280;59838;52.152;5.436;2023-02-25T02:01:51;100945.25;;;3.59;92.01
71970;BME280;59838;52.152;5.436;2023-02-25T02:04:18;100952.53;;;3.54;91.71
71970;BME280;59838;52.152;5.436;2023-02-25T02:06:47;100950.09;;;3.52;91.89
71970;BME280;59838;52.152;5.436;2023-02-25T02:09:18;100945.09;;;3.51;92.18
71970;BME280;59838;52.152;5.436;2023-02-25T02:11:46;100945.91;;;3.51;92.41
71970;BME280;59838;52.152;5.436;2023-02-25T02:14:20;100942.53;;;3.51;92.43
71970;BME280;59838;52.152;5.436;2023-02-25T02:17:02;100949.16;;;3.53;92.61
71970;BME280;59838;52.152;5.436;2023-02-25T02:19:58;100944.97;;;3.52;93.19
71970;BME280;59838;52.152;5.436;2023-02-25T02:22:44;100936.31;;;3.53;92.99
71970;BME280;59838;52.152;5.436;2023-02-25T02:28:24;100943.34;;;3.51;93.51
71970;BME280;59838;52.152;5.436;2023-02-25T02:34:27;100950.09;;;3.42;94.16
71970;BME280;59838;52.152;5.436;2023-02-25T02:37:17;100941.28;;;3.35;94.16
71970;BME280;59838;52.152;5.436;2023-02-25T02:40:17;100951.97;;;3.31;94.47
71970;BME280;59838;52.152;5.436;2023-02-25T02:43:47;100952.34;;;3.26;94.60
71970;BME280;59838;52.152;5.436;2023-02-25T02:46:23;100950.47;;;3.28;95.18
71970;BME280;59838;52.152;5.436;2023-02-25T02:49:02;100941.00;;;3.28;95.37
71970;BME280;59838;52.152;5.436;2023-02-25T02:51:38;100947.34;;;3.24;95.44
71970;BME280;59838;52.152;5.436;2023-02-25T02:54:10;100937.88;;;3.25;95.68
71970;BME280;59838;52.152;5.436;2023-02-25T02:56:39;100940.44;;;3.25;95.50
71970;BME280;59838;52.152;5.436;2023-02-25T02:59:12;100943.16;;;3.23;95.69
71970;BME280;59838;52.152;5.436;2023-02-25T03:01:44;100950.72;;;3.25;95.57
71970;BME280;59838;52.152;5.436;2023-02-25T03:04:17;100946.53;;;3.24;95.69
71970;BME280;59838;52.152;5.436;2023-02-25T03:06:49;100953.41;;;3.23;95.63
71970;BME280;59838;52.152;5.436;2023-02-25T03:09:20;100957.09;;;3.21;95.60
71970;BME280;59838;52.152;5.436;2023-02-25T03:11:47;100954.34;;;3.22;95.63
71970;BME280;59838;52.152;5.436;2023-02-25T03:14:14;100954.09;;;3.25;95.52
71970;BME280;59838;52.152;5.436;2023-02-25T03:17:07;100957.09;;;3.31;95.71
71970;BME280;59838;52.152;5.436;2023-02-25T03:19:38;100969.53;;;3.35;95.79
71970;BME280;59838;52.152;5.436;2023-02-25T03:22:15;100966.81;;;3.37;95.42
71970;BME280;59838;52.152;5.436;2023-02-25T03:24:53;100966.69;;;3.38;95.66
71970;BME280;59838;52.152;5.436;2023-02-25T03:27:25;100973.06;;;3.44;95.36
71970;BME280;59838;52.152;5.436;2023-02-25T03:30:45;100964.16;;;3.48;94.83
71970;BME280;59838;52.152;5.436;2023-02-25T03:32:56;100959.56;;;3.52;94.72
71970;BME280;59838;52.152;5.436;2023-02-25T03:35:24;100962.81;;;3.54;94.45
71970;BME280;59838;52.152;5.436;2023-02-25T03:37:57;100948.34;;;3.53;94.29
71970;BME280;59838;52.152;5.436;2023-02-25T03:40:25;100947.41;;;3.54;93.93
71970;BME280;59838;52.152;5.436;2023-02-25T03:42:59;100958.22;;;3.57;93.44
71970;BME280;59838;52.152;5.436;2023-02-25T03:45:28;100958.22;;;3.57;93.35
71970;BME280;59838;52.152;5.436;2023-02-25T03:47:57;100966.47;;;3.61;93.15
71970;BME280;59838;52.152;5.436;2023-02-25T03:50:28;100967.28;;;3.61;92.82
71970;BME280;59838;52.152;5.436;2023-02-25T03:52:56;100977.44;;;3.63;92.56
71970;BME280;59838;52.152;5.436;2023-02-25T03:55:23;100982.03;;;3.69;91.72
71970;BME280;59838;52.152;5.436;2023-02-25T03:57:50;100979.31;;;3.71;91.47
71970;BME280;59838;52.152;5.436;2023-02-25T04:00:24;100977.84;;;3.68;91.71
71970;BME280;59838;52.152;5.436;2023-02-25T04:02:51;100979.03;;;3.64;90.80
71970;BME280;59838;52.152;5.436;2023-02-25T04:05:19;100983.66;;;3.60;90.54
71970;BME280;59838;52.152;5.436;2023-02-25T04:07:46;100992.00;;;3.53;89.96
71970;BME280;59838;52.152;5.436;2023-02-25T04:10:14;100993.63;;;3.44;89.93
71970;BME280;59838;52.152;5.436;2023-02-25T04:12:41;100999.16;;;3.39;89.96
71970;BME280;59838;52.152;5.436;2023-02-25T04:15:08;100991.84;;;3.35;89.69
71970;BME280;59838;52.152;5.436;2023-02-25T04:17:35;100991.53;;;3.28;89.97
71970;BME280;59838;52.152;5.436;2023-02-25T04:20:03;101002.75;;;3.27;89.69
71970;BME280;59838;52.152;5.436;2023-02-25T04:22:31;101004.66;;;3.25;89.46
71970;BME280;59838;52.152;5.436;2023-02-25T04:24:57;101000.84;;;3.19;89.43
71970;BME280;59838;52.152;5.436;2023-02-25T04:27:24;101000.28;;;3.16;89.05
71970;BME280;59838;52.152;5.436;2023-02-25T04:29:52;100997.72;;;3.16;89.00
71970;BME280;59838;52.152;5.436;2023-02-25T04:32:18;101005.66;;;3.13;88.83
71970;BME280;59838;52.152;5.436;2023-02-25T04:34:45;100996.91;;;3.15;88.88
71970;BME280;59838;52.152;5.436;2023-02-25T04:37:11;101003.28;;;3.21;88.73
71970;BME280;59838;52.152;5.436;2023-02-25T04:39:38;101002.75;;;3.27;88.35
71970;BME280;59838;52.152;5.436;2023-02-25T04:42:04;101005.75;;;3.32;88.04
71970;BME280;59838;52.152;5.436;2023-02-25T04:44:31;101011.16;;;3.29;87.94
71970;BME280;59838;52.152;5.436;2023-02-25T04:46:58;101010.91;;;3.32;88.18
71970;BME280;59838;52.152;5.436;2023-02-25T04:49:24;101015.06;;;3.33;87.77
71970;BME280;59838;52.152;5.436;2023-02-25T04:51:51;101017.91;;;3.30;87.54
71970;BME280;59838;52.152;5.436;2023-02-25T04:54:18;101021.69;;;3.26;87.40
71970;BME280;59838;52.152;5.436;2023-02-25T04:56:46;101017.34;;;3.26;87.61
71970;BME280;59838;52.152;5.436;2023-02-25T04:59:14;101014.91;;;3.25;87.85
71970;BME280;59838;52.152;5.436;2023-02-25T05:01:41;101008.84;;;3.26;87.71
71970;BME280;59838;52.152;5.436;2023-02-25T05:04:08;101007.09;;;3.26;88.05
71970;BME280;59838;52.152;5.436;2023-02-25T05:06:34;101008.47;;;3.31;87.91
71970;BME280;59838;52.152;5.436;2023-02-25T05:09:01;101010.75;;;3.34;87.77
71970;BME280;59838;52.152;5.436;2023-02-25T05:11:29;101001.31;;;3.34;88.16
71970;BME280;59838;52.152;5.436;2023-02-25T05:13:55;101006.31;;;3.36;88.08
71970;BME280;59838;52.152;5.436;2023-02-25T05:16:23;101005.91;;;3.40;88.07
71970;BME280;59838;52.152;5.436;2023-02-25T05:18:51;101004.03;;;3.42;88.39
71970;BME280;59838;52.152;5.436;2023-02-25T05:21:20;101005.50;;;3.45;88.07
71970;BME280;59838;52.152;5.436;2023-02-25T05:23:49;101001.06;;;3.47;87.98
71970;BME280;59838;52.152;5.436;2023-02-25T05:26:17;101008.50;;;3.50;88.00
71970;BME280;59838;52.152;5.436;2023-02-25T05:28:52;101010.94;;;3.52;88.23
71970;BME280;59838;52.152;5.436;2023-02-25T05:31:19;101015.66;;;3.56;88.27
71970;BME280;59838;52.152;5.436;2023-02-25T05:33:46;101016.50;;;3.57;88.10
71970;BME280;59838;52.152;5.436;2023-02-25T05:36:14;101015.28;;;3.61;88.33
71970;BME280;59838;52.152;5.436;2023-02-25T05:38:41;101025.41;;;3.62;87.90
71970;BME280;59838;52.152;5.436;2023-02-25T05:41:10;101019.63;;;3.60;88.38
71970;BME280;59838;52.152;5.436;2023-02-25T05:43:38;101026.13;;;3.64;88.39
71970;BME280;59838;52.152;5.436;2023-02-25T05:46:05;101022.72;;;3.64;88.39
71970;BME280;59838;52.152;5.436;2023-02-25T05:48:38;101020.16;;;3.64;88.35
71970;BME280;59838;52.152;5.436;2023-02-25T05:51:07;101030.31;;;3.65;88.29
71970;BME280;59838;52.152;5.436;2023-02-25T05:53:35;101013.81;;;3.68;88.37
71970;BME280;59838;52.152;5.436;2023-02-25T05:56:07;101020.81;;;3.66;88.22
71970;BME280;59838;52.152;5.436;2023-02-25T05:58:35;101013.00;;;3.67;88.26
71970;BME280;59838;52.152;5.436;2023-02-25T06:01:06;101020.69;;;3.67;88.04
71970;BME280;59838;52.152;5.436;2023-02-25T06:03:37;101030.03;;;3.69;87.59
71970;BME280;59838;52.152;5.436;2023-02-25T06:06:04;101029.22;;;3.68;87.53
71970;BME280;59838;52.152;5.436;2023-02-25T06:08:31;101034.50;;;3.66;87.60
71970;BME280;59838;52.152;5.436;2023-02-25T06:10:59;101036.53;;;3.63;87.75
71970;BME280;59838;52.152;5.436;2023-02-25T06:13:27;101035.16;;;3.59;87.36
71970;BME280;59838;52.152;5.436;2023-02-25T06:15:53;101033.94;;;3.53;87.67
71970;BME280;59838;52.152;5.436;2023-02-25T06:18:20;101037.44;;;3.52;87.88
71970;BME280;59838;52.152;5.436;2023-02-25T06:20:46;101028.81;;;3.53;87.58
71970;BME280;59838;52.152;5.436;2023-02-25T06:23:13;101038.00;;;3.56;87.86
71970;BME280;59838;52.152;5.436;2023-02-25T06:25:39;101038.00;;;3.56;87.52
71970;BME280;59838;52.152;5.436;2023-02-25T06:28:05;101046.38;;;3.58;87.66
71970;BME280;59838;52.152;5.436;2023-02-25T06:30:32;101056.25;;;3.62;87.24
71970;BME280;59838;52.152;5.436;2023-02-25T06:32:58;101054.66;;;3.61;87.69
71970;BME280;59838;52.152;5.436;2023-02-25T06:35:25;101053.56;;;3.64;87.65
71970;BME280;59838;52.152;5.436;2023-02-25T06:37:56;101060.47;;;3.63;87.89
71970;BME280;59838;52.152;5.436;2023-02-25T06:40:24;101068.03;;;3.65;87.75
71970;BME280;59838;52.152;5.436;2023-02-25T06:42:51;101069.81;;;3.64;88.13
71970;BME280;59838;52.152;5.436;2023-02-25T06:45:18;101070.88;;;3.62;88.04
71970;BME280;59838;52.152;5.436;2023-02-25T06:47:46;101076.00;;;3.62;88.48
71970;BME280;59838;52.152;5.436;2023-02-25T06:50:13;101077.91;;;3.60;88.86
71970;BME280;59838;52.152;5.436;2023-02-25T06:52:39;101071.81;;;3.61;89.45
71970;BME280;59838;52.152;5.436;2023-02-25T06:55:06;101082.50;;;3.66;89.11
71970;BME280;59838;52.152;5.436;2023-02-25T06:57:34;101075.75;;;3.65;88.99
71970;BME280;59838;52.152;5.436;2023-02-25T07:00:02;101079.00;;;3.67;89.13
71970;BME280;59838;52.152;5.436;2023-02-25T07:02:31;101090.19;;;3.66;89.08
71970;BME280;59838;52.152;5.436;2023-02-25T07:04:57;101119.84;;;3.70;89.92
71970;BME280;59838;52.152;5.436;2023-02-25T07:07:25;101121.75;;;3.68;90.79
71970;BME280;59838;52.152;5.436;2023-02-25T07:09:52;101122.88;;;3.54;92.06
71970;BME280;59838;52.152;5.436;2023-02-25T07:12:19;101121.75;;;3.37;93.31
71970;BME280;59838;52.152;5.436;2023-02-25T07:14:45;101117.19;;;3.20;94.58
71970;BME280;59838;52.152;5.436;2023-02-25T07:17:12;101111.38;;;3.18;95.44
71970;BME280;59838;52.152;5.436;2023-02-25T07:19:38;101110.94;;;3.13;95.99
71970;BME280;59838;52.152;5.436;2023-02-25T07:22:05;101118.63;;;3.13;96.30
71970;BME280;59838;52.152;5.436;2023-02-25T07:24:32;101125.66;;;3.10;96.91
71970;BME280;59838;52.152;5.436;2023-02-25T07:26:58;101127.28;;;3.11;97.42
71970;BME280;59838;52.152;5.436;2023-02-25T07:29:25;101130.28;;;3.17;97.80
71970;BME280;59838;52.152;5.436;2023-02-25T07:31:52;101126.53;;;3.21;98.23
71970;BME280;59838;52.152;5.436;2023-02-25T07:34:18;101131.25;;;3.25;98.02
71970;BME280;59838;52.152;5.436;2023-02-25T07:36:45;101130.88;;;3.30;98.17
71970;BME280;59838;52.152;5.436;2023-02-25T07:39:11;101132.16;;;3.36;98.16
71970;BME280;59838;52.152;5.436;2023-02-25T07:41:38;101132.69;;;3.39;98.10
71970;BME280;59838;52.152;5.436;2023-02-25T07:44:07;101130.94;;;3.40;98.29
71970;BME280;59838;52.152;5.436;2023-02-25T07:46:35;101135.69;;;3.44;98.41
71970;BME280;59838;52.152;5.436;2023-02-25T07:49:01;101142.09;;;3.50;98.21
71970;BME280;59838;52.152;5.436;2023-02-25T07:51:28;101139.25;;;3.53;98.26
71970;BME280;59838;52.152;5.436;2023-02-25T07:53:55;101143.06;;;3.59;98.28
71970;BME280;59838;52.152;5.436;2023-02-25T07:56:24;101147.81;;;3.63;98.20
71970;BME280;59838;52.152;5.436;2023-02-25T07:58:51;101148.91;;;3.71;98.38
71970;BME280;59838;52.152;5.436;2023-02-25T08:01:24;101150.06;;;3.88;98.18
71970;BME280;59838;52.152;5.436;2023-02-25T08:03:53;101150.38;;;4.04;97.75
71970;BME280;59838;52.152;5.436;2023-02-25T08:06:21;101150.28;;;4.15;97.80
71970;BME280;59838;52.152;5.436;2023-02-25T08:08:48;101158.38;;;4.20;96.93
71970;BME280;59838;52.152;5.436;2023-02-25T08:11:18;101165.84;;;4.24;96.80
71970;BME280;59838;52.152;5.436;2023-02-25T08:13:45;101162.22;;;4.26;96.20
71970;BME280;59838;52.152;5.436;2023-02-25T08:16:17;101166.13;;;4.30;96.31
71970;BME280;59838;52.152;5.436;2023-02-25T08:18:45;101166.13;;;4.30;95.80
71970;BME280;59838;52.152;5.436;2023-02-25T08:21:14;101168.03;;;4.28;95.74
71970;BME280;59838;52.152;5.436;2023-02-25T08:23:41;101171.13;;;4.32;95.84
71970;BME280;59838;52.152;5.436;2023-02-25T08:26:08;101173.84;;;4.40;96.21
71970;BME280;59838;52.152;5.436;2023-02-25T08:28:37;101177.41;;;4.49;96.06
71970;BME280;59838;52.152;5.436;2023-02-25T08:31:06;101183.09;;;4.52;96.01
71970;BME280;59838;52.152;5.436;2023-02-25T08:33:33;101169.97;;;4.55;95.68
71970;BME280;59838;52.152;5.436;2023-02-25T08:36:11;101185.00;;;4.60;95.90
71970;BME280;59838;52.152;5.436;2023-02-25T08:38:38;101184.44;;;4.66;95.36
71970;BME280;59838;52.152;5.436;2023-02-25T08:41:06;101178.09;;;4.70;94.77
71970;BME280;59838;52.152;5.436;2023-02-25T08:43:33;101185.94;;;4.69;93.18
71970;BME280;59838;52.152;5.436;2023-02-25T08:46:00;101180.94;;;4.67;93.64
71970;BME280;59838;52.152;5.436;2023-02-25T08:48:27;101187.72;;;4.68;92.38
71970;BME280;59838;52.152;5.436;2023-02-25T08:50:54;101185.66;;;4.72;91.55
71970;BME280;59838;52.152;5.436;2023-02-25T08:53:21;101191.22;;;4.87;91.97
71970;BME280;59838;52.152;5.436;2023-02-25T08:55:48;101191.06;;;4.98;90.33
71970;BME280;59838;52.152;5.436;2023-02-25T08:58:16;101196.50;;;4.95;87.82
71970;BME280;59838;52.152;5.436;2023-02-25T09:00:42;101207.75;;;4.94;87.05
71970;BME280;59838;52.152;5.436;2023-02-25T09:03:09;101210.34;;;5.04;87.05
71970;BME280;59838;52.152;5.436;2023-02-25T09:05:35;101219.41;;;5.08;85.97
71970;BME280;59838;52.152;5.436;2023-02-25T09:08:03;101214.38;;;5.06;85.66
71970;BME280;59838;52.152;5.436;2023-02-25T09:10:30;101240.53;;;5.02;84.85
71970;BME280;59838;52.152;5.436;2023-02-25T09:13:15;101248.25;;;5.02;85.07
71970;BME280;59838;52.152;5.436;2023-02-25T09:15:43;101243.94;;;5.02;85.84
71970;BME280;59838;52.152;5.436;2023-02-25T09:18:09;101249.75;;;5.14;86.93
71970;BME280;59838;52.152;5.436;2023-02-25T09:20:37;101245.81;;;5.20;86.47
71970;BME280;59838;52.152;5.436;2023-02-25T09:23:03;101248.38;;;5.39;85.02
71970;BME280;59838;52.152;5.436;2023-02-25T09:25:30;101257.03;;;5.58;85.58
71970;BME280;59838;52.152;5.436;2023-02-25T09:27:56;101247.13;;;5.53;85.21
71970;BME280;59838;52.152;5.436;2023-02-25T09:30:23;101261.81;;;5.43;85.09
71970;BME280;59838;52.152;5.436;2023-02-25T09:32:49;101264.75;;;5.58;85.88
71970;BME280;59838;52.152;5.436;2023-02-25T09:35:16;101261.41;;;5.95;85.22
71970;BME280;59838;52.152;5.436;2023-02-25T09:37:43;101269.84;;;5.97;84.07
71970;BME280;59838;52.152;5.436;2023-02-25T09:40:14;101269.44;;;5.82;82.81
71970;BME280;59838;52.152;5.436;2023-02-25T09:42:54;101268.97;;;5.49;83.45
71970;BME280;59838;52.152;5.436;2023-02-25T09:45:25;101284.44;;;5.39;81.51
71970;BME280;59838;52.152;5.436;2023-02-25T09:47:56;101280.66;;;5.34;81.83
71970;BME280;59838;52.152;5.436;2023-02-25T09:50:27;101277.81;;;5.37;81.76
71970;BME280;59838;52.152;5.436;2023-02-25T09:53:09;101278.63;;;5.37;81.33
71970;BME280;59838;52.152;5.436;2023-02-25T09:55:42;101285.78;;;5.53;82.70
71970;BME280;59838;52.152;5.436;2023-02-25T10:00:44;101289.97;;;5.74;82.25
71970;BME280;59838;52.152;5.436;2023-02-25T10:03:50;101290.59;;;5.85;81.29
71970;BME280;59838;52.152;5.436;2023-02-25T10:12:05;101287.50;;;5.82;77.55
71970;BME280;59838;52.152;5.436;2023-02-25T10:17:15;101299.38;;;6.12;78.47
71970;BME280;59838;52.152;5.436;2023-02-25T10:22:52;101306.47;;;6.66;77.21
71970;BME280;59838;52.152;5.436;2023-02-25T10:25:27;101299.47;;;6.76;78.65
71970;BME280;59838;52.152;5.436;2023-02-25T10:27:59;101316.81;;;6.66;77.35
71970;BME280;59838;52.152;5.436;2023-02-25T10:33:20;101312.56;;;6.09;76.39
71970;BME280;59838;52.152;5.436;2023-02-25T10:36:06;101324.63;;;6.09;77.78
71970;BME280;59838;52.152;5.436;2023-02-25T10:38:37;101329.25;;;5.95;75.88
71970;BME280;59838;52.152;5.436;2023-02-25T10:41:04;101321.41;;;5.87;75.42
71970;BME280;59838;52.152;5.436;2023-02-25T10:43:33;101330.09;;;5.86;75.65
71970;BME280;59838;52.152;5.436;2023-02-25T10:49:14;101330.47;;;6.11;74.62
71970;BME280;59838;52.152;5.436;2023-02-25T10:54:22;101333.69;;;6.78;74.12
71970;BME280;59838;52.152;5.436;2023-02-25T10:56:50;101334.63;;;6.87;73.43
71970;BME280;59838;52.152;5.436;2023-02-25T10:59:34;101339.94;;;6.85;73.54
71970;BME280;59838;52.152;5.436;2023-02-25T11:02:17;101356.72;;;6.71;73.91
71970;BME280;59838;52.152;5.436;2023-02-25T11:04:45;101345.91;;;6.30;76.08
71970;BME280;59838;52.152;5.436;2023-02-25T11:07:34;101362.69;;;5.97;77.27
71970;BME280;59838;52.152;5.436;2023-02-25T11:10:21;101385.63;;;5.61;79.29
71970;BME280;59838;52.152;5.436;2023-02-25T11:12:51;101392.41;;;4.82;81.86
71970;BME280;59838;52.152;5.436;2023-02-25T11:21:09;101400.09;;;3.57;89.08
71970;BME280;59838;52.152;5.436;2023-02-25T11:23:44;101406.75;;;3.92;89.35
71970;BME280;59838;52.152;5.436;2023-02-25T11:26:48;101391.47;;;4.43;90.03
71970;BME280;59838;52.152;5.436;2023-02-25T11:29:39;101392.50;;;4.71;88.41
71970;BME280;59838;52.152;5.436;2023-02-25T11:32:19;101389.47;;;4.97;87.65
71970;BME280;59838;52.152;5.436;2023-02-25T11:34:52;101384.78;;;5.21;84.45
71970;BME280;59838;52.152;5.436;2023-02-25T11:37:40;101390.66;;;5.43;79.47
71970;BME280;59838;52.152;5.436;2023-02-25T11:40:32;101387.38;;;5.70;81.71
71970;BME280;59838;52.152;5.436;2023-02-25T11:43:19;101389.28;;;5.97;77.68
71970;BME280;59838;52.152;5.436;2023-02-25T11:45:57;101385.44;;;6.21;75.31
71970;BME280;59838;52.152;5.436;2023-02-25T11:48:44;101398.78;;;6.07;73.80
71970;BME280;59838;52.152;5.436;2023-02-25T11:51:38;101387.09;;;5.83;71.07
71970;BME280;59838;52.152;5.436;2023-02-25T11:54:50;101397.41;;;5.63;70.66
71970;BME280;59838;52.152;5.436;2023-02-25T11:57:38;101386.03;;;5.56;67.79
71970;BME280;59838;52.152;5.436;2023-02-25T12:00:17;101393.47;;;5.89;66.13
71970;BME280;59838;52.152;5.436;2023-02-25T12:05:51;101386.69;;;6.45;66.18
71970;BME280;59838;52.152;5.436;2023-02-25T12:08:37;101379.44;;;6.30;65.06
71970;BME280;59838;52.152;5.436;2023-02-25T12:19:46;101407.84;;;5.81;61.95
71970;BME280;59838;52.152;5.436;2023-02-25T12:25:56;101396.06;;;5.49;63.55
71970;BME280;59838;52.152;5.436;2023-02-25T12:28:38;101387.06;;;5.93;61.53
71970;BME280;59838;52.152;5.436;2023-02-25T12:34:12;101383.25;;;6.26;62.17
71970;BME280;59838;52.152;5.436;2023-02-25T12:36:48;101390.19;;;6.63;63.46
71970;BME280;59838;52.152;5.436;2023-02-25T13:01:57;101413.56;;;6.62;57.12
71970;BME280;59838;52.152;5.436;2023-02-25T13:08:02;101420.91;;;6.56;55.71
71970;BME280;59838;52.152;5.436;2023-02-25T13:10:48;101427.28;;;6.15;56.04
71970;BME280;59838;52.152;5.436;2023-02-25T13:19:24;101434.47;;;6.21;57.30
71970;BME280;59838;52.152;5.436;2023-02-25T13:25:16;101444.56;;;6.52;57.15
71970;BME280;59838;52.152;5.436;2023-02-25T13:30:53;101436.38;;;6.19;55.28
71970;BME280;59838;52.152;5.436;2023-02-25T13:33:45;101441.38;;;6.30;57.61
71970;BME280;59838;52.152;5.436;2023-02-25T13:39:42;101443.00;;;6.69;57.02
71970;BME280;59838;52.152;5.436;2023-02-25T13:42:34;101444.16;;;6.56;58.06
71970;BME280;59838;52.152;5.436;2023-02-25T13:45:30;101461.19;;;6.20;58.66
71970;BME280;59838;52.152;5.436;2023-02-25T13:48:34;101465.41;;;5.82;58.56
71970;BME280;59838;52.152;5.436;2023-02-25T13:51:38;101469.72;;;5.52;55.39
71970;BME280;59838;52.152;5.436;2023-02-25T13:57:13;101474.91;;;5.81;54.96
71970;BME280;59838;52.152;5.436;2023-02-25T14:06:14;101478.88;;;6.15;55.30
71970;BME280;59838;52.152;5.436;2023-02-25T14:20:09;101478.97;;;6.33;57.58
71970;BME280;59838;52.152;5.436;2023-02-25T14:23:07;101486.75;;;6.03;56.56
71970;BME280;59838;52.152;5.436;2023-02-25T14:25:55;101491.88;;;5.74;57.53
71970;BME280;59838;52.152;5.436;2023-02-25T14:37:20;101529.31;;;5.68;54.01
71970;BME280;59838;52.152;5.436;2023-02-25T14:45:52;101530.25;;;5.67;54.52
71970;BME280;59838;52.152;5.436;2023-02-25T14:48:57;101543.16;;;5.67;55.45
71970;BME280;59838;52.152;5.436;2023-02-25T14:57:54;101537.97;;;5.58;54.70
71970;BME280;59838;52.152;5.436;2023-02-25T15:07:06;101561.63;;;5.32;53.76
71970;BME280;59838;52.152;5.436;2023-02-25T15:09:57;101572.44;;;5.26;53.65
71970;BME280;59838;52.152;5.436;2023-02-25T15:24:09;101570.22;;;5.11;55.06
71970;BME280;59838;52.152;5.436;2023-02-25T15:26:55;101588.50;;;5.08;55.82
71970;BME280;59838;52.152;5.436;2023-02-25T15:35:04;101591.78;;;5.10;56.48
71970;BME280;59838;52.152;5.436;2023-02-25T15:37:33;101599.13;;;5.15;57.23
71970;BME280;59838;52.152;5.436;2023-02-25T15:55:39;101618.44;;;4.46;55.82
71970;BME280;59838;52.152;5.436;2023-02-25T16:00:55;101626.16;;;4.46;57.63
71970;BME280;59838;52.152;5.436;2023-02-25T16:06:15;101641.34;;;4.49;58.29
71970;BME280;59838;52.152;5.436;2023-02-25T16:09:11;101637.25;;;4.47;56.09
71970;BME280;59838;52.152;5.436;2023-02-25T16:11:42;101660.66;;;4.44;57.86
71970;BME280;59838;52.152;5.436;2023-02-25T16:14:28;101652.97;;;4.32;56.99
71970;BME280;59838;52.152;5.436;2023-02-25T16:17:04;101649.72;;;4.30;56.64
71970;BME280;59838;52.152;5.436;2023-02-25T16:19:35;101656.16;;;4.25;56.80
71970;BME280;59838;52.152;5.436;2023-02-25T16:22:25;101668.31;;;4.22;56.54
71970;BME280;59838;52.152;5.436;2023-02-25T16:24:55;101666.81;;;4.20;56.44
71970;BME280;59838;52.152;5.436;2023-02-25T16:30:36;101670.09;;;4.11;58.01
71970;BME280;59838;52.152;5.436;2023-02-25T16:33:22;101677.81;;;3.99;58.05